createdAt,value
2023-01-11T00:01:14.347Z,97273.19
2023-01-11T00:03:42.935Z,97259.25
2023-01-11T00:06:12.827Z,97254.84
2023-01-11T00:08:41.358Z,97256.38
2023-01-11T00:11:17.267Z,97245.94
2023-01-11T00:13:46.521Z,97251.59
2023-01-11T00:16:15.617Z,97244.88
2023-01-11T00:18:44.286Z,97242.72
2023-01-11T00:21:13.014Z,97236.00
2023-01-11T00:23:41.659Z,97236.28
2023-01-11T00:26:12.885Z,97233.34
2023-01-11T00:28:42.818Z,97239.28
2023-01-11T00:31:11.483Z,97236.84
2023-01-11T00:33:40.081Z,97229.28
2023-01-11T00:36:10.039Z,97221.72
2023-01-11T00:38:53.976Z,97225.25
2023-01-11T00:41:41.700Z,97221.47
2023-01-11T00:44:31.471Z,97219.09
2023-01-11T00:47:17.598Z,97208.34
2023-01-11T00:49:46.296Z,97215.66
2023-01-11T00:52:15.136Z,97208.94
2023-01-11T00:54:43.699Z,97213.00
2023-01-11T00:57:12.442Z,97217.88
2023-01-11T00:59:42.007Z,97217.34
2023-01-11T01:02:11.601Z,97215.47
2023-01-11T01:04:40.922Z,97207.38
2023-01-11T01:07:11.670Z,97203.31
2023-01-11T01:09:40.292Z,97203.31
2023-01-11T01:12:09.321Z,97194.41
2023-01-11T01:14:37.270Z,97194.97
2023-01-11T01:17:09.559Z,97192.84
2023-01-11T01:19:40.310Z,97199.56
2023-01-11T01:22:09.205Z,97196.84
2023-01-11T01:24:37.601Z,97197.41
2023-01-11T01:27:05.859Z,97203.06
2023-01-11T01:29:34.434Z,97205.25
2023-01-11T01:32:03.023Z,97205.81
2023-01-11T01:34:32.670Z,97197.47
2023-01-11T01:37:01.243Z,97202.88
2023-01-11T01:39:29.985Z,97207.97
2023-01-11T01:41:58.790Z,97196.13
2023-01-11T01:44:57.872Z,97202.88
2023-01-11T01:47:36.151Z,97202.91
2023-01-11T01:50:14.207Z,97188.91
2023-01-11T01:52:45.457Z,97185.09
2023-01-11T01:55:22.131Z,97180.00
2023-01-11T01:57:52.321Z,97177.88
2023-01-11T02:00:21.804Z,97171.94
2023-01-11T02:02:51.128Z,97171.38
2023-01-11T02:05:21.140Z,97174.59
2023-01-11T02:07:51.470Z,97175.41
2023-01-11T02:10:22.963Z,97164.59
2023-01-11T02:12:59.165Z,97161.34
2023-01-11T02:15:28.306Z,97152.19
2023-01-11T02:17:56.905Z,97141.41
2023-01-11T02:21:10.058Z,97140.06
2023-01-11T02:24:08.263Z,97136.03
2023-01-11T02:27:13.706Z,97134.13
2023-01-11T02:29:58.572Z,97138.19
2023-01-11T02:32:41.152Z,97146.03
2023-01-11T02:35:18.264Z,97147.09
2023-01-11T02:38:03.069Z,97140.91
2023-01-11T02:40:51.021Z,97146.56
2023-01-11T02:43:48.257Z,97142.81
2023-01-11T02:46:31.322Z,97142.00
2023-01-11T02:49:09.546Z,97135.03
2023-01-11T02:51:46.078Z,97129.63
2023-01-11T02:54:17.400Z,97125.03
2023-01-11T02:56:51.329Z,97125.59
2023-01-11T02:59:24.977Z,97125.88
2023-01-11T03:01:56.069Z,97116.97
2023-01-11T03:04:29.816Z,97108.88
2023-01-11T03:07:22.175Z,97112.13
2023-01-11T03:10:08.589Z,97108.91
2023-01-11T03:12:56.122Z,97102.16
2023-01-11T03:15:50.228Z,97106.75
2023-01-11T03:18:41.091Z,97102.16
2023-01-11T03:21:39.533Z,97107.03
2023-01-11T03:24:21.218Z,97103.53
2023-01-11T03:27:10.210Z,97107.59
2023-01-11T03:29:49.025Z,97103.53
2023-01-11T03:32:29.471Z,97097.34
2023-01-11T03:35:16.931Z,97092.78
2023-01-11T03:37:49.202Z,97093.06
2023-01-11T03:40:23.896Z,97089.78
2023-01-11T03:43:14.591Z,97088.72
2023-01-11T03:45:54.142Z,97082.25
2023-01-11T03:48:27.018Z,97087.66
2023-01-11T03:51:00.635Z,97087.38
2023-01-11T03:53:35.669Z,97080.09
2023-01-11T03:56:08.379Z,97077.94
2023-01-11T03:58:37.599Z,97068.78
2023-01-11T04:01:06.736Z,97053.38
2023-01-11T04:03:35.443Z,97046.38
2023-01-11T04:06:05.735Z,97048.25
2023-01-11T04:08:34.410Z,97049.06
2023-01-11T04:11:05.577Z,97058.50
2023-01-11T04:13:34.433Z,97052.31
2023-01-11T04:16:03.170Z,97053.13
2023-01-11T04:18:31.803Z,97051.50
2023-01-11T04:21:00.514Z,97048.81
2023-01-11T04:23:31.013Z,97050.41
2023-01-11T04:25:59.316Z,97045.28
2023-01-11T04:28:27.932Z,97049.63
2023-01-11T04:30:56.592Z,97038.00
2023-01-11T04:33:25.194Z,97042.31
2023-01-11T04:35:53.798Z,97046.91
2023-01-11T04:38:24.995Z,97044.75
2023-01-11T04:41:14.972Z,97041.50
2023-01-11T04:43:42.684Z,97037.47
2023-01-11T04:46:11.462Z,97043.94
2023-01-11T04:48:40.338Z,97043.41
2023-01-11T04:51:09.862Z,97042.31
2023-01-11T04:53:38.713Z,97039.63
2023-01-11T04:56:09.730Z,97044.75
2023-01-11T04:58:38.433Z,97044.47
2023-01-11T05:01:11.690Z,97047.44
2023-01-11T05:03:40.628Z,97046.66
2023-01-11T05:06:09.912Z,97040.69
2023-01-11T05:08:38.601Z,97042.59
2023-01-11T05:11:09.650Z,97048.78
2023-01-11T05:13:44.278Z,97050.16
2023-01-11T05:16:14.927Z,97056.34
2023-01-11T05:18:44.969Z,97049.34
2023-01-11T05:21:16.250Z,97047.72
2023-01-11T05:23:45.149Z,97044.22
2023-01-11T05:26:18.764Z,97045.81
2023-01-11T05:28:48.573Z,97050.41
2023-01-11T05:31:17.775Z,97039.38
2023-01-11T05:33:46.823Z,97050.69
2023-01-11T05:36:17.546Z,97036.66
2023-01-11T05:38:48.252Z,97043.13
2023-01-11T05:41:19.665Z,97039.09
2023-01-11T05:44:08.468Z,97039.63
2023-01-11T05:46:39.273Z,97045.56
2023-01-11T05:49:09.713Z,97035.84
2023-01-11T05:51:39.103Z,97045.53
2023-01-11T05:54:10.674Z,97045.56
2023-01-11T05:56:42.510Z,97039.63
2023-01-11T05:59:11.333Z,97031.50
2023-01-11T06:01:40.547Z,97024.50
2023-01-11T06:04:09.199Z,97014.50
2023-01-11T06:06:37.852Z,97009.13
2023-01-11T06:09:06.599Z,97012.63
2023-01-11T06:11:35.352Z,97006.69
2023-01-11T06:14:05.366Z,97014.50
2023-01-11T06:16:34.067Z,97009.41
2023-01-11T06:19:02.494Z,97006.94
2023-01-11T06:21:31.147Z,96998.31
2023-01-11T06:24:00.130Z,97002.91
2023-01-11T06:26:28.889Z,97002.38
2023-01-11T06:28:57.454Z,96995.09
2023-01-11T06:31:27.087Z,96995.91
2023-01-11T06:33:55.777Z,96992.66
2023-01-11T06:36:24.392Z,96985.63
2023-01-11T06:38:53.859Z,96988.06
2023-01-11T06:41:22.174Z,96985.38
2023-01-11T06:43:52.431Z,96985.13
2023-01-11T06:46:21.090Z,96989.97
2023-01-11T06:48:50.687Z,96986.19
2023-01-11T06:51:19.310Z,96981.59
2023-01-11T06:53:47.891Z,96982.66
2023-01-11T06:56:19.268Z,96988.88
2023-01-11T06:58:48.810Z,96979.69
2023-01-11T07:01:19.230Z,96983.47
2023-01-11T07:03:47.906Z,96978.31
2023-01-11T07:06:17.853Z,96959.41
2023-01-11T07:08:46.442Z,96957.56
2023-01-11T07:11:14.849Z,96956.47
2023-01-11T07:13:43.223Z,96976.72
2023-01-11T07:16:11.946Z,96996.41
2023-01-11T07:18:40.594Z,96989.38
2023-01-11T07:21:09.204Z,96988.28
2023-01-11T07:23:38.800Z,96988.00
2023-01-11T07:26:07.704Z,96988.81
2023-01-11T07:28:36.453Z,96982.03
2023-01-11T07:31:05.172Z,96991.50
2023-01-11T07:33:33.783Z,96990.94
2023-01-11T07:36:05.427Z,96998.47
2023-01-11T07:38:34.099Z,96992.28
2023-01-11T07:41:24.372Z,96994.69
2023-01-11T07:43:51.978Z,96993.03
2023-01-11T07:46:20.819Z,96988.44
2023-01-11T07:48:49.566Z,96981.41
2023-01-11T07:51:20.552Z,96980.06
2023-01-11T07:53:49.130Z,96980.53
2023-01-11T07:56:19.007Z,96978.34
2023-01-11T07:58:47.583Z,96980.22
2023-01-11T08:01:16.184Z,96975.88
2023-01-11T08:03:44.841Z,96983.72
2023-01-11T08:06:14.534Z,96979.38
2023-01-11T08:08:42.970Z,96977.75
2023-01-11T08:11:28.961Z,96975.31
2023-01-11T08:14:16.472Z,96979.34
2023-01-11T08:16:45.052Z,96986.59
2023-01-11T08:19:13.759Z,96981.44
2023-01-11T08:21:44.441Z,96976.22
2023-01-11T08:24:12.828Z,96971.28
2023-01-11T08:26:41.406Z,96974.84
2023-01-11T08:29:11.220Z,96966.69
2023-01-11T08:31:40.092Z,96964.44
2023-01-11T08:34:09.401Z,96963.81
2023-01-11T08:36:38.502Z,96964.34
2023-01-11T08:39:07.334Z,96957.81
2023-01-11T08:41:36.202Z,96956.06
2023-01-11T08:44:04.764Z,96960.94
2023-01-11T08:46:34.995Z,96961.16
2023-01-11T08:49:03.511Z,96961.66
2023-01-11T08:51:33.122Z,96958.56
2023-01-11T08:54:01.743Z,96960.88
2023-01-11T08:56:30.335Z,96959.09
2023-01-11T08:58:59.409Z,96956.03
2023-01-11T09:01:28.099Z,96953.28
2023-01-11T09:03:57.907Z,96958.59
2023-01-11T09:06:26.766Z,96957.09
2023-01-11T09:08:55.544Z,96961.88
2023-01-11T09:11:41.760Z,96966.78
2023-01-11T09:14:10.395Z,96956.03
2023-01-11T09:16:39.000Z,96961.53
2023-01-11T09:19:08.622Z,96953.97
2023-01-11T09:21:37.254Z,96960.88
2023-01-11T09:24:06.620Z,96950.03
2023-01-11T09:26:35.778Z,96958.06
2023-01-11T09:29:04.521Z,96942.38
2023-01-11T09:31:33.911Z,96949.44
2023-01-11T09:34:07.281Z,96953.25
2023-01-11T09:36:42.205Z,96960.00
2023-01-11T09:39:14.746Z,96961.31
2023-01-11T09:42:16.499Z,96961.00
2023-01-11T09:44:53.012Z,96963.31
2023-01-11T09:47:32.941Z,96962.44
2023-01-11T09:50:07.553Z,96954.94
2023-01-11T09:52:42.304Z,96955.97
2023-01-11T09:55:21.325Z,96951.41
2023-01-11T09:58:03.162Z,96948.81
2023-01-11T10:00:49.951Z,96950.56
2023-01-11T10:03:49.907Z,96942.50
2023-01-11T10:06:30.213Z,96938.66
2023-01-11T10:18:39.949Z,96924.47
2023-01-11T10:18:49.436Z,96916.25
2023-01-11T10:21:29.175Z,96922.09
2023-01-11T10:24:03.414Z,96918.66
2023-01-11T10:26:40.118Z,96921.13
2023-01-11T10:29:47.237Z,96913.72
2023-01-11T10:32:45.883Z,96909.97
2023-01-11T10:35:41.746Z,96905.25
2023-01-11T10:38:42.808Z,96897.72
2023-01-11T10:41:26.146Z,96901.66
2023-01-11T10:44:11.727Z,96891.63
2023-01-11T10:46:48.856Z,96895.78
2023-01-11T10:49:50.719Z,96892.34
2023-01-11T10:52:35.101Z,96892.97
2023-01-11T10:55:13.041Z,96887.72
2023-01-11T10:58:03.579Z,96884.19
2023-01-11T11:00:47.396Z,96869.00
2023-01-11T11:03:57.287Z,96867.22
2023-01-11T11:06:41.402Z,96859.19
2023-01-11T11:09:42.310Z,96862.44
2023-01-11T11:12:20.493Z,96856.97
2023-01-11T11:14:59.846Z,96854.06
2023-01-11T11:17:36.375Z,96853.44
2023-01-11T11:20:16.297Z,96850.59
2023-01-11T11:23:01.931Z,96841.78
2023-01-11T11:25:38.190Z,96837.09
2023-01-11T11:28:26.006Z,96834.44
2023-01-11T11:30:58.362Z,96826.91
2023-01-11T11:33:44.117Z,96821.47
2023-01-11T11:36:17.626Z,96808.72
2023-01-11T11:39:10.451Z,96812.91
2023-01-11T11:41:49.273Z,96810.03
2023-01-11T11:44:35.359Z,96817.88
2023-01-11T11:47:19.156Z,96816.22
2023-01-11T11:50:43.759Z,96808.16
2023-01-11T11:53:53.323Z,96800.13
2023-01-11T11:56:44.865Z,96807.50
2023-01-11T11:59:36.880Z,96801.41
2023-01-11T12:02:15.485Z,96809.59
2023-01-11T12:04:50.841Z,96794.75
2023-01-11T12:07:55.615Z,96800.19
2023-01-11T12:10:32.190Z,96804.44
2023-01-11T12:13:06.732Z,96789.38
2023-01-11T12:19:27.921Z,96786.19
2023-01-11T12:22:19.050Z,96791.72
2023-01-11T12:25:03.374Z,96780.66
2023-01-11T12:27:45.683Z,96782.28
2023-01-11T12:30:35.678Z,96773.19
2023-01-11T12:33:30.184Z,96774.81
2023-01-11T12:36:09.320Z,96766.94
2023-01-11T12:39:02.982Z,96764.22
2023-01-11T12:41:50.255Z,96760.16
2023-01-11T12:44:43.306Z,96764.75
2023-01-11T12:48:06.224Z,96760.06
2023-01-11T12:50:47.834Z,96756.09
2023-01-11T12:53:33.794Z,96758.94
2023-01-11T12:56:39.572Z,96749.16
2023-01-11T13:03:58.095Z,96746.84
2023-01-11T13:06:37.628Z,96745.41
2023-01-11T13:09:11.506Z,96741.09
2023-01-11T13:11:55.840Z,96741.88
2023-01-11T13:14:46.824Z,96744.53
2023-01-11T13:17:31.468Z,96746.44
2023-01-11T13:20:27.203Z,96755.22
2023-01-11T13:23:08.172Z,96741.44
2023-01-11T13:25:45.905Z,96743.69
2023-01-11T13:28:26.801Z,96744.00
2023-01-11T13:30:56.309Z,96739.97
2023-01-11T13:34:10.759Z,96744.59
2023-01-11T13:36:49.038Z,96743.09
2023-01-11T13:39:28.569Z,96751.09
2023-01-11T13:42:03.745Z,96749.28
2023-01-11T13:44:42.766Z,96751.22
2023-01-11T13:47:20.913Z,96750.38
2023-01-11T13:50:10.480Z,96754.59
2023-01-11T13:52:57.371Z,96750.53
2023-01-11T13:55:34.149Z,96754.13
2023-01-11T13:58:10.555Z,96755.63
2023-01-11T14:00:43.431Z,96760.53
2023-01-11T14:03:26.979Z,96747.75
2023-01-11T14:06:13.306Z,96761.66
2023-01-11T14:09:12.804Z,96764.88
2023-01-11T14:11:54.048Z,96761.97
2023-01-11T14:14:47.942Z,96765.78
2023-01-11T14:18:10.047Z,96762.41
2023-01-11T14:20:48.562Z,96768.38
2023-01-11T14:23:21.567Z,96763.59
2023-01-11T14:26:28.788Z,96768.00
2023-01-11T14:29:44.994Z,96776.66
2023-01-11T14:32:41.543Z,96774.06
2023-01-11T14:35:56.298Z,96775.97
2023-01-11T14:38:50.555Z,96769.53
2023-01-11T14:42:00.540Z,96780.41
2023-01-11T14:45:00.181Z,96780.22
2023-01-11T14:48:09.434Z,96783.84
2023-01-11T14:51:09.352Z,96784.47
2023-01-11T14:53:45.870Z,96782.56
2023-01-11T14:56:54.428Z,96784.72
2023-01-11T14:59:39.856Z,96777.53
2023-01-11T15:02:18.004Z,96779.94
2023-01-11T15:05:26.325Z,96791.91
2023-01-11T15:08:25.233Z,96786.09
2023-01-11T15:11:02.543Z,96787.50
2023-01-11T15:13:35.951Z,96791.31
2023-01-11T15:16:28.942Z,96786.69
2023-01-11T15:18:59.933Z,96794.53
2023-01-11T15:21:29.267Z,96790.69
2023-01-11T15:24:00.342Z,96792.81
2023-01-11T15:26:29.457Z,96796.13
2023-01-11T15:29:01.281Z,96798.84
2023-01-11T15:31:49.173Z,96807.00
2023-01-11T15:34:28.997Z,96807.31
2023-01-11T15:37:36.484Z,96806.81
2023-01-11T15:40:37.900Z,96812.56
2023-01-11T15:44:05.110Z,96822.63
2023-01-11T15:47:36.449Z,96814.78
2023-01-11T15:50:47.675Z,96830.78
2023-01-11T15:54:03.931Z,96826.75
2023-01-11T15:57:19.866Z,96832.88
2023-01-11T16:00:25.050Z,96833.97
2023-01-11T16:03:44.972Z,96836.22
2023-01-11T16:06:29.284Z,96855.53
2023-01-11T16:09:22.410Z,96869.00
2023-01-11T16:12:13.385Z,96887.00
2023-01-11T16:15:26.130Z,96882.00
2023-01-11T16:18:12.521Z,96872.13
2023-01-11T16:21:03.531Z,96866.19
2023-01-11T16:23:36.403Z,96877.34
2023-01-11T16:26:07.100Z,96887.72
2023-01-11T16:28:36.047Z,96895.69
2023-01-11T16:31:06.806Z,96889.94
2023-01-11T16:33:37.559Z,96888.63
2023-01-11T16:36:12.917Z,96879.16
2023-01-11T16:38:53.342Z,96885.72
2023-01-11T16:41:29.980Z,96884.91
2023-01-11T16:44:43.197Z,96883.09
2023-01-11T16:47:20.857Z,96886.72
2023-01-11T16:52:54.445Z,96900.59
2023-01-11T16:55:36.609Z,96903.31
2023-01-11T16:58:18.295Z,96915.56
2023-01-11T17:00:58.867Z,96911.28
2023-01-11T17:03:29.712Z,96917.78
2023-01-11T17:06:16.202Z,96928.97
2023-01-11T17:08:49.976Z,96917.88
2023-01-11T17:11:31.031Z,96930.69
2023-01-11T17:14:31.023Z,96938.00
2023-01-11T17:17:04.030Z,96940.41
2023-01-11T17:19:36.738Z,96948.06
2023-01-11T17:22:09.772Z,96953.50
2023-01-11T17:24:47.632Z,96950.47
2023-01-11T17:27:22.837Z,96957.53
2023-01-11T17:29:55.894Z,96964.06
2023-01-11T17:32:30.716Z,96956.50
2023-01-11T17:35:03.529Z,96965.75
2023-01-11T17:37:32.452Z,96967.16
2023-01-11T17:40:03.005Z,96979.91
2023-01-11T17:42:49.016Z,96984.56
2023-01-11T17:45:23.029Z,96988.41
2023-01-11T17:47:55.286Z,96989.50
2023-01-11T17:50:29.441Z,96995.13
2023-01-11T17:53:14.863Z,96999.25
2023-01-11T17:55:53.929Z,96999.25
2023-01-11T17:58:27.001Z,97008.69
2023-01-11T18:01:22.505Z,97007.63
2023-01-11T18:03:53.770Z,97012.75
2023-01-11T18:06:32.272Z,97010.25
2023-01-11T18:09:03.500Z,97004.81
2023-01-11T18:11:37.278Z,97005.91
2023-01-11T18:14:17.716Z,97002.38
2023-01-11T18:16:58.785Z,97007.03
2023-01-11T18:19:34.927Z,97015.47
2023-01-11T18:22:03.808Z,97018.47
2023-01-11T18:24:45.049Z,97014.13
2023-01-11T18:27:24.346Z,97019.06
2023-01-11T18:29:54.384Z,97018.28
2023-01-11T18:32:23.077Z,97024.19
2023-01-11T18:34:56.345Z,97033.16
2023-01-11T18:37:25.231Z,97035.88
2023-01-11T18:39:54.479Z,97042.91
2023-01-11T18:42:32.230Z,97035.56
2023-01-11T18:45:00.884Z,97036.66
2023-01-11T18:47:30.510Z,97038.56
2023-01-11T18:49:59.374Z,97045.63
2023-01-11T18:52:29.517Z,97043.72
2023-01-11T18:54:58.590Z,97048.34
2023-01-11T18:57:28.180Z,97044.00
2023-01-11T18:59:56.925Z,97054.38
2023-01-11T19:02:29.251Z,97056.59
2023-01-11T19:04:58.543Z,97058.69
2023-01-11T19:07:27.790Z,97052.75
2023-01-11T19:09:56.144Z,97063.91
2023-01-11T19:12:25.013Z,97070.97
2023-01-11T19:14:54.637Z,97068.53
2023-01-11T19:17:23.224Z,97082.19
2023-01-11T19:19:51.456Z,97082.78
2023-01-11T19:22:23.286Z,97090.94
2023-01-11T19:24:55.189Z,97094.44
2023-01-11T19:27:24.034Z,97091.22
2023-01-11T19:29:54.022Z,97105.31
2023-01-11T19:32:25.087Z,97098.31
2023-01-11T19:34:57.973Z,97106.47
2023-01-11T19:37:28.100Z,97104.06
2023-01-11T19:39:56.430Z,97102.44
2023-01-11T19:42:24.993Z,97108.69
2023-01-11T19:44:54.873Z,97103.84
2023-01-11T19:47:23.596Z,97117.19
2023-01-11T19:49:56.365Z,97113.69
2023-01-11T19:52:24.933Z,97116.16
2023-01-11T19:54:54.948Z,97115.63
2023-01-11T19:57:23.683Z,97119.69
2023-01-11T19:59:52.391Z,97122.31
2023-01-11T20:02:23.081Z,97130.84
2023-01-11T20:04:51.706Z,97132.97
2023-01-11T20:07:20.370Z,97135.38
2023-01-11T20:09:48.912Z,97136.50
2023-01-11T20:12:17.470Z,97138.63
2023-01-11T20:14:46.390Z,97148.09
2023-01-11T20:17:19.170Z,97148.38
2023-01-11T20:19:54.391Z,97148.16
2023-01-11T20:22:23.702Z,97141.47
2023-01-11T20:24:52.596Z,97143.97
2023-01-11T20:27:21.248Z,97144.56
2023-01-11T20:29:49.876Z,97157.91
2023-01-11T20:32:39.881Z,97168.25
2023-01-11T20:35:11.660Z,97164.28
2023-01-11T20:37:40.452Z,97171.69
2023-01-11T20:40:11.914Z,97180.69
2023-01-11T20:42:41.830Z,97185.91
2023-01-11T20:45:12.503Z,97193.50
2023-01-11T20:47:41.063Z,97188.00
2023-01-11T20:50:11.708Z,97184.72
2023-01-11T20:52:40.321Z,97190.41
2023-01-11T20:55:10.180Z,97193.91
2023-01-11T20:57:38.987Z,97190.91
2023-01-11T21:02:38.588Z,97195.53
2023-01-11T21:05:08.506Z,97192.81
2023-01-11T21:07:38.106Z,97196.63
2023-01-11T21:10:09.057Z,97195.28
2023-01-11T21:15:08.667Z,97199.41
2023-01-11T21:17:37.398Z,97209.16
2023-01-11T21:20:07.321Z,97212.41
2023-01-11T21:22:37.187Z,97216.50
2023-01-11T21:25:06.397Z,97220.06
2023-01-11T21:27:35.151Z,97218.78
2023-01-11T21:30:03.913Z,97234.25
2023-01-11T21:32:32.548Z,97237.25
2023-01-11T21:35:01.100Z,97242.69
2023-01-11T21:37:30.095Z,97251.13
2023-01-11T21:40:00.214Z,97241.09
2023-01-11T21:42:29.303Z,97245.16
2023-01-11T21:44:57.893Z,97254.69
2023-01-11T21:47:26.492Z,97256.66
2023-01-11T21:49:55.075Z,97259.38
2023-01-11T21:52:23.291Z,97248.22
2023-01-11T21:54:53.666Z,97257.44
2023-01-11T21:57:23.358Z,97259.66
2023-01-11T21:59:52.099Z,97266.44
2023-01-11T22:02:20.968Z,97268.06
2023-01-11T22:04:53.114Z,97265.63
2023-01-11T22:07:21.659Z,97274.63
2023-01-11T22:10:04.042Z,97272.53
2023-01-11T22:12:35.019Z,97279.69
2023-01-11T22:15:03.784Z,97279.53
2023-01-11T22:17:31.969Z,97281.00
2023-01-11T22:20:00.260Z,97292.63
2023-01-11T22:22:29.203Z,97284.25
2023-01-11T22:24:57.851Z,97293.47
2023-01-11T22:27:26.484Z,97299.97
2023-01-11T22:29:56.089Z,97290.44
2023-01-11T22:32:24.843Z,97284.66
2023-01-11T22:34:53.444Z,97280.81
2023-01-11T22:37:22.061Z,97278.84
2023-01-11T22:39:50.705Z,97282.63
2023-01-11T22:42:19.448Z,97270.16
2023-01-11T22:44:48.073Z,97283.16
2023-01-11T22:47:17.972Z,97269.59
2023-01-11T22:49:46.490Z,97278.47
2023-01-11T22:52:15.081Z,97276.59
2023-01-11T22:54:43.694Z,97287.69
2023-01-11T22:57:11.944Z,97288.19
2023-01-11T22:59:40.552Z,97294.72
2023-01-11T23:02:09.184Z,97298.81
2023-01-11T23:04:38.743Z,97297.78
2023-01-11T23:07:07.402Z,97299.41
2023-01-11T23:09:35.999Z,97306.53
2023-01-11T23:12:22.817Z,97308.72
2023-01-11T23:14:51.390Z,97315.22
2023-01-11T23:17:20.635Z,97314.16
2023-01-11T23:19:50.249Z,97309.00
2023-01-11T23:22:18.870Z,97306.84
2023-01-11T23:24:47.488Z,97306.00
2023-01-11T23:27:16.280Z,97301.09
2023-01-11T23:29:44.926Z,97296.25
2023-01-11T23:32:13.632Z,97284.66
2023-01-11T23:34:42.251Z,97294.72
2023-01-11T23:37:11.868Z,97301.44
2023-01-11T23:39:40.520Z,97291.41
2023-01-11T23:42:26.282Z,97281.41
2023-01-11T23:44:54.889Z,97297.78
2023-01-11T23:47:24.029Z,97293.78
2023-01-11T23:49:55.133Z,97290.84
2023-01-11T23:52:26.617Z,97294.94
2023-01-11T23:54:55.349Z,97294.09
2023-01-11T23:57:26.184Z,97291.44
2023-01-11T23:59:54.475Z,97289.56
